createdAt,value
2023-01-10T00:01:56.713Z,10.63
2023-01-10T00:06:53.531Z,8.40
2023-01-10T00:12:08.597Z,7.90
2023-01-10T00:17:04.962Z,6.68
2023-01-10T00:22:05.690Z,5.80
2023-01-10T00:27:03.483Z,7.65
2023-01-10T00:31:59.863Z,5.63
2023-01-10T00:36:56.328Z,3.78
2023-01-10T00:42:11.514Z,9.98
2023-01-10T00:47:07.978Z,7.22
2023-01-10T00:52:05.127Z,9.13
2023-01-10T00:57:01.520Z,9.95
2023-01-10T01:01:57.928Z,10.55
2023-01-10T01:06:54.325Z,6.60
2023-01-10T01:11:50.697Z,7.53
2023-01-10T01:16:47.096Z,8.60
2023-01-10T01:21:43.501Z,6.75
2023-01-10T01:26:42.006Z,10.77
2023-01-10T01:31:38.358Z,18.35
2023-01-10T01:36:34.805Z,20.42
2023-01-10T01:41:49.704Z,15.20
2023-01-10T01:47:04.261Z,21.05
2023-01-10T01:52:08.734Z,21.08
2023-01-10T01:57:15.881Z,19.67
2023-01-10T02:02:48.290Z,23.95
2023-01-10T02:07:56.506Z,19.98
2023-01-10T02:17:52.751Z,26.40
2023-01-10T02:23:04.432Z,14.93
2023-01-10T02:28:10.949Z,18.40
2023-01-10T02:33:13.398Z,18.73
2023-01-10T02:38:36.019Z,27.48
2023-01-10T02:43:39.676Z,22.58
2023-01-10T02:48:36.017Z,15.50
2023-01-10T02:53:46.855Z,18.48
2023-01-10T02:59:09.244Z,23.90
2023-01-10T03:04:45.519Z,29.58
2023-01-10T03:09:55.180Z,23.58
2023-01-10T03:14:53.202Z,15.52
2023-01-10T03:19:52.257Z,22.53
2023-01-10T03:24:51.632Z,22.90
2023-01-10T03:29:56.945Z,23.88
2023-01-10T03:34:54.626Z,20.73
2023-01-10T03:40:00.115Z,20.30
2023-01-10T03:45:08.883Z,25.63
2023-01-10T03:55:05.634Z,13.15
2023-01-10T04:00:04.701Z,15.40
2023-01-10T04:05:01.040Z,17.48
2023-01-10T04:09:57.595Z,14.35
2023-01-10T04:14:54.093Z,19.55
2023-01-10T04:19:50.479Z,20.73
2023-01-10T04:24:48.673Z,19.20
2023-01-10T04:29:45.096Z,25.65
2023-01-10T04:34:41.481Z,18.42
2023-01-10T04:39:37.869Z,14.85
2023-01-10T04:44:34.164Z,15.88
2023-01-10T04:49:31.128Z,21.85
2023-01-10T04:54:27.487Z,31.95
2023-01-10T04:59:24.067Z,25.50
2023-01-10T05:04:21.057Z,16.10
2023-01-10T05:09:17.562Z,21.33
2023-01-10T05:14:13.987Z,23.35
2023-01-10T05:19:10.492Z,28.88
2023-01-10T05:24:07.381Z,18.88
2023-01-10T05:29:04.551Z,28.65
2023-01-10T05:34:01.137Z,30.92
2023-01-10T05:38:57.980Z,21.75
2023-01-10T05:43:54.358Z,14.23
2023-01-10T05:48:52.666Z,24.67
2023-01-10T05:53:50.300Z,8.68
2023-01-10T05:58:51.376Z,29.05
2023-01-10T06:03:50.374Z,18.55
2023-01-10T06:08:46.692Z,19.50
2023-01-10T06:13:43.063Z,21.77
2023-01-10T06:18:39.420Z,23.67
2023-01-10T06:23:36.029Z,22.88
2023-01-10T06:28:32.391Z,22.45
2023-01-10T06:33:28.724Z,19.25
2023-01-10T06:38:25.113Z,22.58
2023-01-10T06:43:21.612Z,21.92
2023-01-10T06:48:18.071Z,19.60
2023-01-10T06:53:14.477Z,21.40
2023-01-10T06:58:10.841Z,26.48
2023-01-10T07:03:07.984Z,18.70
2023-01-10T07:08:04.572Z,26.65
2023-01-10T07:13:01.122Z,23.98
2023-01-10T07:17:58.773Z,25.45
2023-01-10T07:22:57.275Z,24.88
2023-01-10T07:27:57.106Z,26.38
2023-01-10T07:32:57.121Z,22.42
2023-01-10T07:37:53.488Z,24.90
2023-01-10T07:42:50.031Z,27.15
2023-01-10T07:47:46.406Z,21.15
2023-01-10T07:52:42.753Z,22.42
2023-01-10T07:57:39.147Z,19.63
2023-01-10T08:02:35.723Z,30.10
2023-01-10T08:07:32.250Z,20.15
2023-01-10T08:12:28.620Z,14.15
2023-01-10T08:17:25.432Z,20.08
2023-01-10T08:22:21.790Z,28.98
2023-01-10T08:27:18.126Z,30.50
2023-01-10T08:32:14.477Z,27.60
2023-01-10T08:37:14.017Z,22.73
2023-01-10T08:42:10.821Z,30.58
2023-01-10T08:47:07.168Z,22.02
2023-01-10T08:52:03.637Z,22.55
2023-01-10T08:57:00.026Z,24.83
2023-01-10T09:01:58.516Z,17.58
2023-01-10T09:06:55.741Z,22.17
2023-01-10T09:11:52.079Z,25.33
2023-01-10T09:16:51.658Z,34.67
2023-01-10T09:21:48.079Z,25.67
2023-01-10T09:26:44.930Z,21.65
2023-01-10T09:31:41.388Z,19.45
2023-01-10T09:36:37.749Z,26.45
2023-01-10T09:41:58.638Z,31.17
2023-01-10T09:47:22.749Z,22.65
2023-01-10T09:52:28.329Z,26.13
2023-01-10T09:57:25.404Z,29.60
2023-01-10T10:02:35.851Z,28.10
2023-01-10T10:07:32.276Z,31.13
2023-01-10T10:12:44.116Z,20.17
2023-01-10T10:17:43.581Z,23.10
2023-01-10T10:22:53.825Z,27.05
2023-01-10T10:28:31.819Z,28.08
2023-01-10T10:33:49.024Z,23.77
2023-01-10T10:38:48.440Z,30.33
2023-01-10T10:43:47.976Z,28.77
2023-01-10T10:48:56.745Z,34.20
2023-01-10T10:58:55.603Z,24.00
2023-01-10T11:03:59.777Z,25.90
2023-01-10T11:09:04.047Z,29.35
2023-01-10T11:14:05.662Z,25.65
2023-01-10T11:19:10.813Z,21.92
2023-01-10T11:24:21.593Z,24.30
2023-01-10T11:29:24.376Z,28.83
2023-01-10T11:34:28.621Z,20.35
2023-01-10T11:39:26.919Z,19.23
2023-01-10T11:44:24.699Z,20.20
2023-01-10T11:49:30.850Z,24.57
2023-01-10T11:54:29.896Z,21.45
2023-01-10T11:59:27.760Z,21.40
2023-01-10T12:04:27.485Z,28.30
2023-01-10T12:09:39.560Z,33.38
2023-01-10T12:14:36.028Z,13.63
2023-01-10T12:19:32.826Z,23.00
2023-01-10T12:24:35.892Z,13.50
2023-01-10T12:30:01.044Z,16.05
2023-01-10T12:35:03.825Z,26.65
2023-01-10T12:40:12.996Z,20.45
2023-01-10T12:45:33.460Z,23.42
2023-01-10T12:50:37.068Z,26.02
2023-01-10T12:55:43.558Z,29.63
2023-01-10T13:00:48.540Z,24.55
2023-01-10T13:05:48.646Z,34.28
2023-01-10T13:10:47.591Z,25.00
2023-01-10T13:15:54.284Z,20.15
2023-01-10T13:21:03.306Z,28.50
2023-01-10T13:26:04.686Z,17.55
2023-01-10T13:31:04.118Z,19.25
2023-01-10T13:36:23.589Z,19.95
2023-01-10T13:41:39.212Z,16.80
2023-01-10T13:46:47.357Z,28.48
2023-01-10T13:52:22.289Z,24.98
2023-01-10T13:57:50.969Z,12.77
2023-01-10T14:02:47.475Z,17.88
2023-01-10T14:07:57.658Z,9.05
2023-01-10T14:12:57.144Z,14.48
2023-01-10T14:17:58.534Z,18.15
2023-01-10T14:23:19.995Z,10.55
2023-01-10T14:28:22.621Z,12.88
2023-01-10T14:33:22.752Z,14.98
2023-01-10T14:38:32.379Z,18.85
2023-01-10T14:43:37.840Z,15.02
2023-01-10T14:48:40.375Z,26.73
2023-01-10T14:53:36.720Z,14.57
2023-01-10T14:58:33.102Z,9.90
2023-01-10T15:03:29.543Z,21.88
2023-01-10T15:08:28.584Z,12.93
2023-01-10T15:13:28.271Z,24.25
2023-01-10T15:18:39.332Z,13.70
2023-01-10T15:23:37.235Z,13.00
2023-01-10T15:28:35.895Z,19.47
2023-01-10T15:38:34.159Z,10.80
2023-01-10T15:43:32.313Z,11.98
2023-01-10T15:48:36.059Z,12.35
2023-01-10T15:53:57.229Z,11.57
2023-01-10T15:58:54.762Z,15.80
2023-01-10T16:03:53.714Z,13.30
2023-01-10T16:08:53.058Z,12.63
2023-01-10T16:13:49.497Z,10.63
2023-01-10T16:18:45.864Z,12.23
2023-01-10T16:23:44.263Z,8.30
2023-01-10T16:28:40.958Z,9.35
2023-01-10T16:33:37.721Z,19.52
2023-01-10T16:38:35.019Z,10.55
2023-01-10T16:43:31.368Z,19.65
2023-01-10T16:48:29.636Z,10.60
2023-01-10T16:53:26.013Z,9.00
2023-01-10T16:58:22.420Z,12.70
2023-01-10T17:03:22.077Z,12.88
2023-01-10T17:08:23.838Z,10.07
2023-01-10T17:13:27.412Z,13.52
2023-01-10T17:18:25.868Z,11.82
2023-01-10T17:23:23.121Z,17.25
2023-01-10T17:28:19.783Z,12.02
2023-01-10T17:33:16.104Z,12.15
2023-01-10T17:38:15.219Z,12.13
2023-01-10T17:43:12.997Z,8.68
2023-01-10T17:48:12.729Z,13.93
2023-01-10T17:53:09.494Z,14.95
2023-01-10T17:58:05.828Z,13.25
2023-01-10T18:03:02.185Z,10.68
2023-01-10T18:08:01.063Z,10.77
2023-01-10T18:12:57.998Z,10.82
2023-01-10T18:17:54.395Z,8.73
2023-01-10T18:23:09.203Z,8.00
2023-01-10T18:28:05.532Z,9.93
2023-01-10T18:33:01.955Z,13.88
2023-01-10T18:37:58.871Z,17.40
2023-01-10T18:42:56.028Z,10.27
2023-01-10T18:47:58.937Z,14.82
2023-01-10T18:52:55.261Z,15.68
2023-01-10T18:57:51.583Z,12.48
2023-01-10T19:02:48.086Z,18.70
2023-01-10T19:07:44.582Z,12.25
2023-01-10T19:12:42.315Z,7.15
2023-01-10T19:17:38.833Z,16.13
2023-01-10T19:22:35.202Z,8.52
2023-01-10T19:27:31.599Z,15.63
2023-01-10T19:32:28.667Z,14.68
2023-01-10T19:37:25.061Z,13.35
2023-01-10T19:42:21.405Z,11.60
2023-01-10T19:47:18.188Z,14.88
2023-01-10T19:52:14.619Z,18.13
2023-01-10T19:57:10.976Z,9.95
2023-01-10T20:02:12.834Z,13.90
2023-01-10T20:07:09.304Z,13.15
2023-01-10T20:12:05.925Z,8.02
2023-01-10T20:17:02.338Z,7.93
2023-01-10T20:21:58.708Z,15.63
2023-01-10T20:26:55.095Z,3.67
2023-01-10T20:31:55.729Z,6.80
2023-01-10T20:36:52.463Z,10.32
2023-01-10T20:41:48.972Z,8.32
2023-01-10T20:46:45.433Z,9.93
2023-01-10T20:51:41.900Z,5.63
2023-01-10T20:56:38.851Z,6.40
2023-01-10T21:01:36.075Z,2.47
2023-01-10T21:06:34.083Z,5.07
2023-01-10T21:11:30.495Z,5.37
2023-01-10T21:16:26.991Z,5.03
2023-01-10T21:21:23.618Z,3.50
2023-01-10T21:26:20.029Z,4.00
2023-01-10T21:31:18.933Z,2.83
2023-01-10T21:36:15.405Z,4.25
2023-01-10T21:41:36.507Z,2.15
2023-01-10T21:46:33.201Z,0.88
2023-01-10T21:51:29.750Z,1.63
2023-01-10T21:56:26.167Z,5.05
2023-01-10T22:01:22.571Z,1.27
2023-01-10T22:06:18.968Z,1.05
2023-01-10T22:11:15.352Z,1.30
2023-01-10T22:16:13.861Z,1.23
2023-01-10T22:21:10.279Z,0.65
2023-01-10T22:26:13.611Z,2.95
2023-01-10T22:31:10.068Z,1.65
2023-01-10T22:36:09.853Z,3.08
2023-01-10T22:41:07.497Z,0.75
2023-01-10T22:46:04.892Z,1.33
2023-01-10T22:51:01.575Z,1.65
2023-01-10T22:56:05.538Z,1.17
2023-01-10T23:01:06.204Z,0.77
2023-01-10T23:06:02.601Z,0.45
2023-01-10T23:11:00.086Z,0.60
2023-01-10T23:16:01.164Z,2.42
2023-01-10T23:20:58.079Z,3.17
2023-01-10T23:26:03.637Z,2.50
2023-01-10T23:31:00.107Z,0.98
2023-01-10T23:35:56.566Z,1.20
2023-01-10T23:40:53.041Z,2.78
2023-01-10T23:45:49.855Z,0.65
2023-01-10T23:50:50.082Z,1.08
2023-01-10T23:55:46.682Z,1.48
